Time;durP1;ratioP1;P1;durP2;ratioP2;P2;SDS_P1;SDS_P2;PMS_P1;PMS_P2;Temp;Humidity;BMP_temperature;BMP_pressure;BME280_temperature;BME280_humidity;BME280_pressure;Samples;Min_cycle;Max_cycle;Signal;HPM_P1;HPM_P2
2021/12/23 00:02:15;;;;;;;18.62;9.02;;;;;;;-1.49;60.15;100694.63;5293002;27;33877;-86
2021/12/23 00:04:44;;;;;;;17.85;10.45;;;;;;;-1.21;59.22;100691.81;5273318;27;34252;-85
2021/12/23 00:07:13;;;;;;;19.00;10.05;;;;;;;-1.29;59.30;100686.34;5293448;27;33487;-86
2021/12/23 00:12:29;;;;;;;18.67;9.07;;;;;;;-1.14;58.90;100668.41;5282159;27;33920;-86
2021/12/23 00:14:58;;;;;;;16.12;9.43;;;;;;;-1.49;59.64;100684.47;5292463;27;34133;-86
2021/12/23 00:17:53;;;;;;;19.02;10.45;;;;;;;-1.24;59.07;100674.72;5292602;27;33556;-85
2021/12/23 00:23:25;;;;;;;16.45;10.35;;;;;;;-1.20;59.04;100668.09;5273258;27;32921;-86
2021/12/23 00:25:57;;;;;;;24.98;11.12;;;;;;;-1.33;59.54;100664.97;5292452;27;33771;-86
2021/12/23 00:28:28;;;;;;;15.57;9.25;;;;;;;-1.24;59.13;100654.34;5278835;27;32812;-86
2021/12/23 00:30:57;;;;;;;19.42;9.55;;;;;;;-1.30;59.13;100659.12;5292915;27;34623;-85
2021/12/23 00:33:27;;;;;;;17.83;10.50;;;;;;;-1.21;58.61;100658.72;5272450;27;33950;-85
2021/12/23 00:35:57;;;;;;;13.25;7.72;;;;;;;-1.20;58.52;100657.94;5292654;27;33523;-86
2021/12/23 00:38:30;;;;;;;15.25;9.85;;;;;;;-1.32;58.75;100656.50;5292378;27;34577;-85
2021/12/23 00:41:02;;;;;;;14.23;8.32;;;;;;;-1.44;59.17;100658.44;5299846;27;33329;-86
2021/12/23 00:43:33;;;;;;;16.33;8.68;;;;;;;-1.34;58.79;100658.09;5272889;27;32898;-85
2021/12/23 00:46:03;;;;;;;14.02;8.05;;;;;;;-1.33;58.46;100657.31;5292807;27;34100;-85
2021/12/23 00:48:35;;;;;;;14.55;8.68;;;;;;;-1.36;58.50;100649.50;5273300;27;31984;-85
2021/12/23 00:51:04;;;;;;;11.38;6.20;;;;;;;-1.38;58.42;100648.56;5293268;27;33118;-86
2021/12/23 00:53:37;;;;;;;12.27;6.72;;;;;;;-1.50;58.50;100645.38;5296120;27;34705;-86
2021/12/23 00:56:10;;;;;;;12.00;7.55;;;;;;;-1.51;58.60;100654.69;5276266;27;34917;-85
2021/12/23 00:58:40;;;;;;;11.23;6.87;;;;;;;-1.47;58.39;100652.31;5290225;27;34401;-87
2021/12/23 01:01:09;;;;;;;10.27;6.68;;;;;;;-1.43;58.29;100654.22;5292348;27;32858;-86
2021/12/23 01:03:39;;;;;;;18.50;7.95;;;;;;;-1.49;58.30;100647.16;5291686;27;34687;-86
2021/12/23 01:06:08;;;;;;;13.25;6.80;;;;;;;-1.55;58.09;100640.09;5293039;27;34569;-85
2021/12/23 01:08:36;;;;;;;14.65;8.75;;;;;;;-1.59;58.65;100642.41;5276191;27;34191;-85
2021/12/23 01:11:06;;;;;;;11.38;6.32;;;;;;;-1.51;58.35;100638.56;5269336;27;34028;-85
2021/12/23 01:13:37;;;;;;;16.58;7.68;;;;;;;-1.52;58.30;100635.16;5289396;27;33997;-85
2021/12/23 01:16:14;;;;;;;13.43;8.80;;;;;;;-1.47;57.85;100635.38;5288173;27;34064;-85
2021/12/23 01:18:46;;;;;;;10.73;6.65;;;;;;;-1.63;58.42;100628.62;5273068;27;32828;-87
2021/12/23 01:21:17;;;;;;;14.40;7.28;;;;;;;-1.62;58.28;100632.06;5292990;27;34611;-87
2021/12/23 01:23:48;;;;;;;;;;;;;;;-1.51;57.94;100624.16;5299761;27;34023;-84
2021/12/23 01:26:20;;;;;;;9.70;6.32;;;;;;;-1.75;58.37;100628.88;5293077;27;33208;-86
2021/12/23 01:28:50;;;;;;;10.52;6.75;;;;;;;-1.75;58.42;100625.47;5273097;27;33601;-85
2021/12/23 01:31:23;;;;;;;12.10;6.50;;;;;;;-1.78;58.57;100622.78;5293062;27;33886;-85
2021/12/23 01:33:56;;;;;;;8.45;5.65;;;;;;;-1.84;58.62;100625.00;5292502;27;34122;-84
2021/12/23 01:36:25;;;;;;;10.15;6.12;;;;;;;-1.84;58.72;100625.00;5299110;27;34138;-85
2021/12/23 01:38:54;;;;;;;16.42;6.35;;;;;;;-1.75;58.31;100626.34;5297238;27;33669;-85
2021/12/23 01:41:24;;;;;;;12.57;6.50;;;;;;;-1.85;58.50;100626.66;5292684;27;33628;-84
2021/12/23 01:43:54;;;;;;;10.63;6.78;;;;;;;-1.59;57.59;100619.50;5292722;27;33235;-85
2021/12/23 01:46:24;;;;;;;5.45;4.37;;;;;;;-1.86;58.36;100614.75;5292384;27;33869;-85
2021/12/23 01:48:54;;;;;;;10.85;5.90;;;;;;;-1.73;58.31;100608.62;5292512;27;33566;-86
2021/12/23 01:51:23;;;;;;;8.60;5.68;;;;;;;-2.10;59.38;100611.81;5298670;27;34004;-85
2021/12/23 01:53:51;;;;;;;10.07;5.12;;;;;;;-1.97;59.36;100605.69;5291467;27;34078;-85
2021/12/23 01:56:20;;;;;;;10.70;5.40;;;;;;;-1.72;58.63;100603.63;5291972;27;34020;-85
2021/12/23 01:58:49;;;;;;;9.45;6.62;;;;;;;-1.78;58.60;100595.66;5292006;27;33976;-85
2021/12/23 02:01:18;;;;;;;9.23;6.05;;;;;;;-1.87;58.88;100587.56;5300496;27;33658;-86
2021/12/23 02:03:49;;;;;;;9.27;5.68;;;;;;;-1.78;58.78;100592.25;5293754;27;34824;-86
2021/12/23 02:06:18;;;;;;;8.48;5.57;;;;;;;-1.76;58.54;100594.09;5293866;27;34113;-85
2021/12/23 02:08:47;;;;;;;12.25;6.57;;;;;;;-1.89;59.09;100601.88;5274416;27;32256;-86
2021/12/23 02:11:16;;;;;;;10.93;5.78;;;;;;;-1.73;58.38;100588.28;5294190;27;34683;-85
2021/12/23 02:13:45;;;;;;;9.13;6.28;;;;;;;-1.79;59.12;100586.31;5299950;27;34081;-85
2021/12/23 02:16:13;;;;;;;10.07;6.03;;;;;;;-1.75;59.26;100587.31;5294081;27;34855;-85
2021/12/23 02:18:44;;;;;;;9.30;5.75;;;;;;;-1.61;58.64;100591.44;5293791;27;33423;-86
2021/12/23 02:21:14;;;;;;;9.07;6.00;;;;;;;-1.73;59.13;100583.19;5293847;27;33672;-85
2021/12/23 02:23:43;;;;;;;13.50;7.53;;;;;;;-1.64;59.02;100578.56;5293600;27;33046;-86
2021/12/23 02:26:11;;;;;;;9.57;6.15;;;;;;;-1.77;59.98;100582.13;5280384;27;33914;-85
2021/12/23 02:28:40;;;;;;;8.13;4.93;;;;;;;-1.74;60.11;100582.31;5293892;27;34466;-85
2021/12/23 02:31:09;;;;;;;11.95;6.53;;;;;;;-1.64;60.22;100573.47;5293841;27;34647;-86
2021/12/23 02:33:38;;;;;;;8.23;5.85;;;;;;;-1.90;61.09;100567.06;5293519;27;33893;-86
2021/12/23 02:36:08;;;;;;;13.05;5.85;;;;;;;-2.01;61.33;100563.09;5293407;27;34052;-86
2021/12/23 02:38:38;;;;;;;7.87;5.97;;;;;;;-1.76;60.31;100563.56;5299874;27;33293;-85
2021/12/23 02:41:07;;;;;;;11.35;5.50;;;;;;;-1.64;60.37;100560.75;5298802;27;33646;-85
2021/12/23 02:43:55;;;;;;;8.40;5.97;;;;;;;-1.72;60.40;100557.84;5293719;27;34854;-85
2021/12/23 02:46:24;;;;;;;10.02;5.35;;;;;;;-1.61;59.98;100555.81;5273322;27;33798;-85
2021/12/23 02:48:52;;;;;;;10.02;6.32;;;;;;;-1.81;60.27;100559.00;5293534;27;33640;-85
2021/12/23 02:51:24;;;;;;;10.63;6.32;;;;;;;-1.68;60.16;100553.75;5293886;27;33530;-85
2021/12/23 02:53:54;;;;;;;7.30;5.25;;;;;;;-1.57;59.70;100544.09;5281206;27;33456;-84
2021/12/23 02:56:23;;;;;;;13.93;7.68;;;;;;;-1.61;59.50;100540.53;5293683;27;33458;-85
2021/12/23 02:58:52;;;;;;;11.63;6.05;;;;;;;-1.73;60.07;100543.34;5274176;27;32818;-85
2021/12/23 03:01:23;;;;;;;10.88;6.25;;;;;;;-1.51;59.50;100539.31;5293286;27;33957;-85
2021/12/23 03:03:54;;;;;;;11.77;6.60;;;;;;;-1.56;59.24;100531.47;5293833;27;34385;-87
2021/12/23 03:06:23;;;;;;;8.32;5.87;;;;;;;-1.69;59.70;100529.13;5293797;27;33249;-86
2021/12/23 03:08:56;;;;;;;10.85;6.72;;;;;;;-1.68;59.39;100532.53;5300033;27;34463;-86
2021/12/23 03:11:28;;;;;;;8.52;6.18;;;;;;;-1.61;59.05;100527.81;5293850;27;34506;-86
2021/12/23 03:13:58;;;;;;;7.12;4.87;;;;;;;-1.62;59.06;100527.75;5293451;27;34707;-85
2021/12/23 03:16:31;;;;;;;12.50;5.55;;;;;;;-1.91;59.97;100524.63;5292771;27;34263;-86
2021/12/23 03:19:00;;;;;;;12.95;6.57;;;;;;;-1.85;60.03;100526.62;5293732;27;33484;-86
2021/12/23 03:21:28;;;;;;;8.50;5.45;;;;;;;-1.83;60.08;100528.44;5300088;27;33462;-86
2021/12/23 03:23:59;;;;;;;12.68;6.93;;;;;;;-1.99;60.56;100534.41;5293374;27;34016;-86
2021/12/23 03:26:27;;;;;;;10.33;6.00;;;;;;;-2.35;61.72;100528.31;5293294;27;33245;-85
2021/12/23 03:28:56;;;;;;;10.90;7.95;;;;;;;-1.74;60.37;100531.44;5292657;27;34135;-85
2021/12/23 03:31:26;;;;;;;13.43;7.07;;;;;;;-1.81;60.36;100523.41;5273466;27;32947;-85
2021/12/23 03:33:55;;;;;;;15.68;7.60;;;;;;;-1.85;60.43;100521.53;5300080;27;34462;-85
2021/12/23 03:36:24;;;;;;;8.93;4.75;;;;;;;-2.19;61.06;100519.81;5293265;27;34755;-86
2021/12/23 03:38:52;;;;;;;8.68;6.57;;;;;;;-1.95;60.43;100521.06;5292789;27;33686;-85
2021/12/23 03:41:23;;;;;;;12.07;6.78;;;;;;;-2.51;62.24;100510.53;5293195;27;33968;-85
2021/12/23 03:43:52;;;;;;;14.45;7.40;;;;;;;-2.54;63.18;100518.00;5293547;27;34201;-86
2021/12/23 03:46:20;;;;;;;9.07;5.50;;;;;;;-2.86;64.16;100519.69;5299940;27;34030;-86
2021/12/23 03:48:50;;;;;;;12.35;6.85;;;;;;;-2.47;63.40;100518.37;5293326;27;34449;-85
2021/12/23 03:51:20;;;;;;;6.85;4.85;;;;;;;-2.89;64.41;100512.78;5292512;27;33812;-86
2021/12/23 03:53:48;;;;;;;10.98;6.82;;;;;;;-2.44;63.00;100517.66;5292111;27;34468;-86
2021/12/23 03:56:18;;;;;;;10.48;7.03;;;;;;;-2.53;63.09;100515.53;5291020;27;34465;-85
2021/12/23 03:58:48;;;;;;;9.55;7.05;;;;;;;-2.44;62.80;100512.59;5299873;27;33692;-86
2021/12/23 04:01:19;;;;;;;9.88;6.85;;;;;;;-2.81;63.89;100510.66;5293091;27;34084;-85
2021/12/23 04:03:49;;;;;;;14.00;6.30;;;;;;;-2.16;62.08;100507.25;5293217;27;34878;-85
2021/12/23 04:06:18;;;;;;;10.88;6.05;;;;;;;-2.07;61.93;100507.75;5293462;27;33893;-85
2021/12/23 04:08:47;;;;;;;12.95;6.25;;;;;;;-2.27;62.55;100499.09;5293255;27;33634;-85
2021/12/23 04:11:16;;;;;;;9.18;5.05;;;;;;;-1.77;60.93;100497.34;5274930;27;32910;-86
2021/12/23 04:13:45;;;;;;;10.50;5.72;;;;;;;-1.92;60.66;100492.38;5259518;27;32643;-86
2021/12/23 04:16:15;;;;;;;7.55;4.68;;;;;;;-1.79;60.62;100496.38;5292596;27;34503;-85
2021/12/23 04:18:46;;;;;;;12.07;6.68;;;;;;;-1.88;60.55;100491.72;5292656;27;32882;-87
2021/12/23 04:21:15;;;;;;;14.70;6.97;;;;;;;-2.49;62.30;100494.59;5293973;27;33832;-85
2021/12/23 04:23:44;;;;;;;9.30;5.20;;;;;;;-2.57;62.78;100489.09;5292995;27;33961;-85
2021/12/23 04:26:13;;;;;;;15.23;6.70;;;;;;;-2.27;62.10;100496.56;5299704;27;34834;-86
2021/12/23 04:28:48;;;;;;;10.40;5.93;;;;;;;-2.04;61.63;100495.16;5272394;27;32796;-84
2021/12/23 04:31:21;;;;;;;8.70;5.43;;;;;;;-1.78;60.43;100488.84;5273341;27;32092;-86
2021/12/23 04:33:53;;;;;;;9.52;6.20;;;;;;;-2.65;62.58;100479.34;5293189;27;34675;-85
2021/12/23 04:36:25;;;;;;;9.23;5.57;;;;;;;-2.14;61.63;100477.72;5293072;27;34239;-85
2021/12/23 04:38:54;;;;;;;10.60;6.07;;;;;;;-1.96;60.89;100470.13;5295937;27;34431;-86
2021/12/23 04:41:23;;;;;;;11.63;5.07;;;;;;;-1.96;60.73;100473.56;5300248;27;34650;-86
2021/12/23 04:43:52;;;;;;;9.05;5.28;;;;;;;-1.81;59.96;100477.63;5294155;27;33893;-85
2021/12/23 04:46:22;;;;;;;9.07;6.35;;;;;;;-1.75;59.33;100478.81;5293858;27;34068;-86
2021/12/23 04:48:51;;;;;;;8.25;5.07;;;;;;;-1.76;58.97;100471.13;5293699;27;32427;-85
2021/12/23 04:51:20;;;;;;;8.40;6.28;;;;;;;-2.03;59.60;100480.78;5294039;27;34977;-85
2021/12/23 04:53:49;;;;;;;12.23;6.30;;;;;;;-2.55;60.69;100476.47;5300547;27;33991;-86
2021/12/23 04:56:18;;;;;;;10.55;6.87;;;;;;;-2.05;59.84;100465.47;5296749;27;33902;-87
2021/12/23 04:58:48;;;;;;;7.75;4.93;;;;;;;-2.72;61.25;100473.06;5294068;27;33467;-87
2021/12/23 05:01:20;;;;;;;11.23;6.40;;;;;;;-2.74;62.54;100478.84;5273531;27;33449;-84
2021/12/23 05:03:51;;;;;;;6.85;4.55;;;;;;;-2.15;60.65;100478.50;5274294;27;33838;-86
2021/12/23 05:06:20;;;;;;;8.32;5.87;;;;;;;-1.95;59.93;100470.22;5299911;27;35439;-85
2021/12/23 05:08:49;;;;;;;11.50;6.80;;;;;;;-2.10;59.73;100478.72;5293960;27;33551;-86
2021/12/23 05:11:18;;;;;;;5.87;4.78;;;;;;;-1.89;59.17;100477.25;5295407;27;34720;-85
2021/12/23 05:13:48;;;;;;;8.38;5.25;;;;;;;-1.97;59.26;100463.31;5293938;27;34235;-85
2021/12/23 05:16:17;;;;;;;7.60;4.57;;;;;;;-1.98;59.08;100466.63;5298300;27;33016;-87
2021/12/23 05:18:47;;;;;;;10.02;5.62;;;;;;;-2.13;59.58;100471.81;5300590;27;33235;-85
2021/12/23 05:21:17;;;;;;;5.85;4.65;;;;;;;-1.91;59.26;100466.12;5293765;27;34934;-85
2021/12/23 05:23:46;;;;;;;12.63;7.27;;;;;;;-2.08;59.59;100460.22;5293818;27;33191;-85
2021/12/23 05:26:15;;;;;;;9.05;6.10;;;;;;;-2.26;60.31;100454.22;5294051;27;34047;-85
2021/12/23 05:28:43;;;;;;;6.62;5.30;;;;;;;-1.94;59.35;100446.50;5293664;27;34392;-85
2021/12/23 05:31:12;;;;;;;8.82;5.25;;;;;;;-2.25;60.13;100454.28;5300786;27;33669;-85
2021/12/23 05:33:44;;;;;;;8.15;5.80;;;;;;;-2.06;59.58;100456.09;5293428;27;34786;-85
2021/12/23 05:36:13;;;;;;;10.25;6.35;;;;;;;-2.32;60.40;100456.44;5293734;27;34084;-85
2021/12/23 05:38:43;;;;;;;8.23;5.10;;;;;;;-2.02;59.89;100463.06;5294446;27;33519;-86
2021/12/23 05:41:11;;;;;;;9.18;4.97;;;;;;;-1.95;59.23;100471.88;5294179;27;32750;-86
2021/12/23 05:43:40;;;;;;;6.72;5.00;;;;;;;-1.99;59.43;100473.38;5300409;27;33843;-85
2021/12/23 05:46:09;;;;;;;10.52;5.25;;;;;;;-1.89;59.36;100473.84;5293454;27;34879;-86
2021/12/23 05:48:38;;;;;;;8.65;6.15;;;;;;;-1.82;59.25;100479.31;5293395;27;34458;-86
2021/12/23 05:51:07;;;;;;;12.30;6.28;;;;;;;-2.09;60.94;100472.88;5294616;27;33722;-87
2021/12/23 05:53:36;;;;;;;10.32;6.18;;;;;;;-1.67;60.55;100470.69;5293700;27;33898;-85
2021/12/23 05:56:06;;;;;;;11.57;7.37;;;;;;;-1.67;60.73;100466.44;5300373;27;34210;-86
2021/12/23 05:58:36;;;;;;;13.30;6.55;;;;;;;-1.90;61.60;100464.47;5298913;27;34674;-85
2021/12/23 06:01:05;;;;;;;10.07;6.47;;;;;;;-1.73;60.92;100467.03;5274346;27;32996;-85
2021/12/23 06:03:34;;;;;;;9.82;6.97;;;;;;;-1.70;61.48;100460.37;5293837;27;33711;-86
2021/12/23 06:06:03;;;;;;;9.88;6.30;;;;;;;-2.21;62.87;100456.19;5295557;27;33919;-86
2021/12/23 06:08:31;;;;;;;9.63;6.10;;;;;;;-2.41;64.24;100452.66;5293495;27;34333;-85
2021/12/23 06:11:00;;;;;;;8.65;5.40;;;;;;;-1.77;62.24;100447.34;5300073;27;33997;-86
2021/12/23 06:13:31;;;;;;;13.48;5.82;;;;;;;-1.85;62.50;100446.09;5293813;27;34405;-85
2021/12/23 06:15:59;;;;;;;9.68;5.37;;;;;;;-1.60;62.22;100450.69;5293912;27;34661;-86
2021/12/23 06:18:28;;;;;;;9.00;5.62;;;;;;;-1.47;61.99;100447.06;5293370;27;33956;-85
2021/12/23 06:20:59;;;;;;;7.28;4.97;;;;;;;-1.48;62.06;100450.41;5293878;27;34141;-86
2021/12/23 06:23:28;;;;;;;9.98;6.60;;;;;;;-1.61;62.40;100455.72;5299746;27;34715;-86
2021/12/23 06:25:57;;;;;;;14.15;6.28;;;;;;;-1.59;62.41;100452.44;5294945;27;34066;-86
2021/12/23 06:28:26;;;;;;;13.65;7.07;;;;;;;-1.68;62.15;100448.59;5293788;27;33764;-87
2021/12/23 06:30:56;;;;;;;10.57;6.25;;;;;;;-2.28;63.76;100448.19;5293006;27;34598;-87
2021/12/23 06:33:25;;;;;;;10.35;6.57;;;;;;;-1.92;63.08;100441.50;5293353;27;34459;-87
2021/12/23 06:35:54;;;;;;;13.40;6.05;;;;;;;-2.38;64.47;100439.22;5300083;27;34450;-87
2021/12/23 06:38:23;;;;;;;8.45;5.45;;;;;;;-2.11;63.90;100443.94;5293464;27;33682;-86
2021/12/23 06:40:52;;;;;;;12.57;6.22;;;;;;;-2.33;64.22;100442.00;5293611;27;33468;-86
2021/12/23 06:43:21;;;;;;;11.65;6.55;;;;;;;-2.40;64.66;100446.75;5293502;27;33625;-86
2021/12/23 06:45:50;;;;;;;13.07;6.85;;;;;;;-2.37;64.49;100449.47;5294236;27;34817;-85
2021/12/23 06:48:20;;;;;;;9.13;7.05;;;;;;;-2.66;65.24;100449.63;5299745;27;34470;-86
2021/12/23 06:50:53;;;;;;;13.17;7.07;;;;;;;-2.38;64.91;100451.94;5293612;27;33628;-85
2021/12/23 06:53:22;;;;;;;9.05;6.03;;;;;;;-2.58;65.60;100450.94;5293453;27;35040;-85
2021/12/23 06:55:52;;;;;;;7.18;5.15;;;;;;;-2.29;64.57;100449.00;5293366;27;34097;-86
2021/12/23 06:58:20;;;;;;;10.32;6.47;;;;;;;-2.47;65.35;100439.63;5296755;27;34205;-86
2021/12/23 07:00:50;;;;;;;13.73;7.05;;;;;;;-2.17;64.61;100447.06;5300408;27;33849;-86
2021/12/23 07:03:23;;;;;;;9.75;6.12;;;;;;;-2.07;64.40;100450.94;5293598;27;34837;-87
2021/12/23 07:06:03;;;;;;;13.35;6.32;;;;;;;-1.91;64.29;100450.87;5293525;27;34088;-86
2021/12/23 07:08:34;;;;;;;9.40;6.90;;;;;;;-2.43;65.19;100443.22;5293675;27;33456;-86
2021/12/23 07:11:04;;;;;;;8.23;4.82;;;;;;;-1.57;62.96;100447.41;5293978;27;34231;-87
2021/12/23 07:13:34;;;;;;;14.23;6.87;;;;;;;-1.92;64.11;100444.06;5293533;27;34813;-87
2021/12/23 07:16:02;;;;;;;11.18;6.03;;;;;;;-1.44;63.15;100442.12;5300430;27;34205;-87
2021/12/23 07:18:33;;;;;;;14.32;6.50;;;;;;;-1.63;63.23;100440.37;5295420;27;33730;-86
2021/12/23 07:21:01;;;;;;;10.60;6.03;;;;;;;-1.45;62.13;100447.13;5293479;27;33685;-87
2021/12/23 07:23:30;;;;;;;9.95;5.68;;;;;;;-1.97;64.29;100442.97;5293376;27;34851;-86
2021/12/23 07:25:59;;;;;;;10.25;7.00;;;;;;;-1.55;62.99;100438.19;5293221;27;34060;-85
2021/12/23 07:28:30;;;;;;;11.73;7.03;;;;;;;-0.99;61.44;100439.06;5299930;27;34314;-85
2021/12/23 07:30:59;;;;;;;14.60;6.75;;;;;;;-1.27;62.45;100442.03;5292911;27;33585;-85
2021/12/23 07:33:28;;;;;;;10.27;5.60;;;;;;;-1.24;62.50;100434.53;5293442;27;34630;-86
2021/12/23 07:35:58;;;;;;;8.63;5.22;;;;;;;-1.46;62.98;100438.62;5293551;27;33813;-86
2021/12/23 07:38:27;;;;;;;11.18;5.80;;;;;;;-2.17;64.18;100436.91;5292748;27;35120;-85
2021/12/23 07:40:56;;;;;;;9.65;6.45;;;;;;;-2.32;65.26;100431.94;5300434;27;33625;-85
2021/12/23 07:43:55;;;;;;;12.55;6.57;;;;;;;-2.06;65.05;100445.03;5275178;27;33304;-86
2021/12/23 07:46:25;;;;;;;12.57;6.03;;;;;;;-2.34;65.46;100436.06;5288339;27;34243;-85
2021/12/23 07:48:54;;;;;;;11.63;6.37;;;;;;;-2.73;67.14;100425.59;5293547;27;34432;-87
2021/12/23 07:51:24;;;;;;;9.68;6.70;;;;;;;-2.06;65.78;100425.56;5293259;27;33719;-85
2021/12/23 07:53:54;;;;;;;7.82;5.32;;;;;;;-2.35;67.05;100424.13;5293548;27;33995;-85
2021/12/23 07:56:24;;;;;;;11.68;6.65;;;;;;;-2.09;66.06;100419.47;5292973;27;34840;-86
2021/12/23 07:58:53;;;;;;;11.68;6.05;;;;;;;-1.80;65.27;100418.34;5299897;27;34710;-86
2021/12/23 08:01:22;;;;;;;9.20;6.43;;;;;;;-1.90;65.34;100417.03;5292485;27;34614;-85
2021/12/23 08:03:51;;;;;;;10.63;5.82;;;;;;;-1.34;63.76;100413.75;5292235;27;33812;-85
2021/12/23 08:06:23;;;;;;;7.45;6.07;;;;;;;-1.08;63.05;100403.88;5293167;27;33277;-85
2021/12/23 08:08:52;;;;;;;12.43;5.65;;;;;;;-0.91;62.79;100402.97;5298622;27;32414;-86
2021/12/23 08:11:21;;;;;;;9.70;5.22;;;;;;;-0.58;61.91;100402.69;5293561;27;34361;-86
2021/12/23 08:13:50;;;;;;;10.82;4.80;;;;;;;-0.37;61.23;100400.16;5294095;27;34006;-86
2021/12/23 08:16:19;;;;;;;8.93;5.32;;;;;;;-0.38;59.97;100395.03;5293896;27;33563;-86
2021/12/23 08:18:48;;;;;;;8.43;4.85;;;;;;;-0.48;60.73;100394.62;5293870;27;33242;-86
2021/12/23 08:21:16;;;;;;;9.10;5.00;;;;;;;-0.38;60.92;100389.94;5281428;27;33205;-86
2021/12/23 08:23:47;;;;;;;8.43;5.12;;;;;;;-0.51;61.27;100391.06;5296227;27;34736;-86
2021/12/23 08:26:16;;;;;;;11.23;4.65;;;;;;;-0.48;59.59;100393.75;5273885;27;34855;-87
2021/12/23 08:28:45;;;;;;;9.73;4.70;;;;;;;-0.03;58.92;100393.91;5293698;27;34556;-85
2021/12/23 08:31:14;;;;;;;6.78;4.37;;;;;;;-0.02;58.85;100388.88;5293876;27;33657;-85
2021/12/23 08:33:43;;;;;;;8.73;5.28;;;;;;;-0.23;59.88;100381.22;5293889;27;34714;-86
2021/12/23 08:36:12;;;;;;;7.30;3.80;;;;;;;0.09;58.36;100378.22;5300848;27;33830;-85
2021/12/23 08:38:41;;;;;;;5.68;3.37;;;;;;;0.28;57.12;100383.25;5273784;27;34358;-85
2021/12/23 08:41:11;;;;;;;7.53;3.45;;;;;;;0.07;57.03;100382.41;5292896;27;34414;-86
2021/12/23 08:43:40;;;;;;;8.68;3.92;;;;;;;0.36;56.67;100387.00;5293375;27;33177;-85
2021/12/23 08:46:09;;;;;;;4.82;3.50;;;;;;;0.43;55.92;100390.63;5293653;27;33824;-85
2021/12/23 08:48:38;;;;;;;6.85;4.22;;;;;;;0.52;55.47;100391.00;5300294;27;33997;-88
2021/12/23 08:51:07;;;;;;;7.90;4.05;;;;;;;0.54;55.48;100393.63;5294033;27;34426;-87
2021/12/23 08:53:36;;;;;;;6.37;3.28;;;;;;;0.08;56.55;100384.16;5293869;27;34002;-87
2021/12/23 08:56:07;;;;;;;4.90;3.62;;;;;;;0.03;55.73;100385.66;5294438;27;34904;-88
2021/12/23 08:58:39;;;;;;;7.68;4.07;;;;;;;0.21;55.45;100373.59;5294401;27;33699;-89
2021/12/23 09:01:08;;;;;;;5.40;3.42;;;;;;;0.07;55.33;100374.75;5300681;27;33222;-86
2021/12/23 09:03:38;;;;;;;7.68;4.15;;;;;;;0.23;55.24;100378.78;5297297;27;33577;-88
2021/12/23 09:06:08;;;;;;;5.82;3.12;;;;;;;0.90;54.51;100377.94;5293464;27;33878;-87
2021/12/23 09:08:37;;;;;;;5.40;3.10;;;;;;;0.39;53.51;100363.28;5294311;27;35032;-88
2021/12/23 09:11:06;;;;;;;6.05;4.43;;;;;;;-0.23;54.91;100359.94;5293848;27;34606;-89
2021/12/23 09:13:35;;;;;;;5.93;3.20;;;;;;;0.41;54.32;100348.84;5294638;27;33691;-87
2021/12/23 09:16:05;;;;;;;7.40;3.05;;;;;;;0.29;54.79;100356.94;5299956;27;34217;-87
2021/12/23 09:18:34;;;;;;;5.70;3.78;;;;;;;0.58;53.67;100349.50;5293807;27;34243;-87
2021/12/23 09:21:04;;;;;;;5.12;3.47;;;;;;;0.83;53.86;100357.25;5293968;27;33488;-88
2021/12/23 09:23:53;;;;;;;6.87;3.67;;;;;;;0.89;53.07;100342.97;5294360;27;34450;-89
2021/12/23 09:26:23;;;;;;;9.02;4.57;;;;;;;0.56;53.52;100340.94;5293908;27;34081;-88
2021/12/23 09:29:01;;;;;;;7.43;4.05;;;;;;;0.32;52.47;100336.63;5294821;27;33681;-88
2021/12/23 09:34:18;;;;;;;5.40;2.75;;;;;;;0.98;51.33;100330.53;5293627;27;33737;-90
2021/12/23 09:36:48;;;;;;;4.32;2.90;;;;;;;1.03;51.85;100322.19;5291749;27;34483;-88
2021/12/23 09:39:16;;;;;;;7.43;3.92;;;;;;;1.20;51.94;100312.56;5292274;27;34469;-88
2021/12/23 09:41:47;;;;;;;6.60;2.87;;;;;;;1.09;51.78;100323.22;5292185;27;33581;-87
2021/12/23 09:44:16;;;;;;;4.12;2.95;;;;;;;1.18;51.48;100314.19;5297890;27;33724;-88
2021/12/23 09:46:47;;;;;;;7.22;3.00;;;;;;;1.25;50.55;100316.16;5289956;27;33727;-88
2021/12/23 09:49:16;;;;;;;4.95;3.40;;;;;;;1.48;50.39;100310.97;5289784;27;33592;-88
2021/12/23 09:51:46;;;;;;;3.12;2.35;;;;;;;1.56;50.85;100306.97;5291065;27;33391;-88
2021/12/23 09:54:18;;;;;;;7.62;3.60;;;;;;;1.42;50.32;100303.94;5292897;27;33735;-88
2021/12/23 09:56:47;;;;;;;4.53;3.08;;;;;;;1.49;50.86;100312.69;5297791;27;34526;-87
2021/12/23 09:59:16;;;;;;;5.47;2.78;;;;;;;1.83;48.89;100318.91;5289472;27;33523;-89
2021/12/23 10:01:47;;;;;;;7.53;3.72;;;;;;;1.67;49.60;100315.88;5269493;27;34398;-87
2021/12/23 10:04:16;;;;;;;5.12;4.28;;;;;;;1.67;48.39;100297.97;5291322;27;33012;-89
2021/12/23 10:06:45;;;;;;;7.97;3.25;;;;;;;1.88;48.54;100297.75;5291580;27;34965;-90
2021/12/23 10:09:21;;;;;;;5.45;3.40;;;;;;;2.10;48.25;100283.06;5298677;27;33408;-87
2021/12/23 10:12:27;;;;;;;5.45;3.20;;;;;;;2.12;48.77;100276.31;5298140;27;34208;-89
2021/12/23 10:31:46;;;;;;;4.05;2.35;;;;;;;2.30;47.03;100261.50;5291465;27;33903;-90
2021/12/23 10:37:16;;;;;;;5.25;3.37;;;;;;;2.43;46.37;100233.69;5292399;27;33729;-89
2021/12/23 10:39:48;;;;;;;4.28;2.70;;;;;;;2.24;45.86;100233.16;5296650;27;33719;-90
2021/12/23 10:42:19;;;;;;;4.00;3.00;;;;;;;2.56;46.20;100223.84;5292095;27;34065;-89
2021/12/23 10:44:51;;;;;;;3.92;2.65;;;;;;;2.62;46.06;100219.72;5291663;27;33883;-88
2021/12/23 10:47:40;;;;;;;4.53;2.65;;;;;;;2.70;46.26;100213.97;5291720;27;34636;-88
2021/12/23 10:50:27;;;;;;;4.40;3.12;;;;;;;2.64;45.72;100203.56;5291606;27;32984;-88
2021/12/23 10:53:04;;;;;;;4.18;2.92;;;;;;;2.97;45.23;100195.00;5292990;27;33629;-89
2021/12/23 10:58:21;;;;;;;5.43;3.08;;;;;;;2.78;45.20;100183.44;5298760;27;33618;-89
2021/12/23 11:00:59;;;;;;;3.70;2.75;;;;;;;2.50;46.30;100192.06;5298797;27;34194;-89
2021/12/23 11:03:32;;;;;;;6.15;2.85;;;;;;;2.65;45.45;100189.91;5291218;27;33358;-87
2021/12/23 11:06:11;;;;;;;3.47;2.83;;;;;;;2.84;45.22;100181.03;5293694;27;33850;-88
2021/12/23 11:08:48;;;;;;;7.68;3.97;;;;;;;2.82;45.99;100166.44;5293125;27;33894;-89
2021/12/23 11:11:37;;;;;;;3.60;2.53;;;;;;;2.73;45.46;100155.13;5295810;27;34130;-89
2021/12/23 11:39:45;;;;;;;3.65;2.65;;;;;;;2.86;45.14;100094.81;5284062;27;33684;-88
2021/12/23 11:42:23;;;;;;;3.62;2.55;;;;;;;2.98;44.41;100089.97;5290535;27;35012;-91
2021/12/23 11:44:52;;;;;;;4.20;2.75;;;;;;;2.87;43.88;100093.97;5289935;27;33280;-91
2021/12/23 11:47:24;;;;;;;2.92;2.45;;;;;;;3.07;43.77;100079.09;5297445;27;33776;-91
2021/12/23 11:49:52;;;;;;;;;;;;;;;3.01;44.25;100072.94;5294629;27;34057;-89
2021/12/23 11:52:21;;;;;;;2.62;2.22;;;;;;;3.15;44.18;100072.44;5294909;27;33654;-91
2021/12/23 11:54:51;;;;;;;3.12;2.67;;;;;;;3.42;42.84;100067.03;5293902;27;34996;-88
2021/12/23 11:57:26;;;;;;;3.53;2.40;;;;;;;3.46;42.54;100068.00;5291858;27;32669;-89
2021/12/23 12:00:04;;;;;;;4.07;2.70;;;;;;;3.32;41.88;100057.41;5297440;27;33858;-88
2021/12/23 12:02:34;;;;;;;2.97;2.12;;;;;;;3.24;42.22;100063.19;5293310;27;34036;-88
2021/12/23 12:05:09;;;;;;;5.32;2.87;;;;;;;3.24;42.89;100058.06;5292942;27;34522;-90
2021/12/23 12:07:40;;;;;;;4.32;2.55;;;;;;;2.78;42.75;100056.19;5293450;27;34035;-88
2021/12/23 12:10:15;;;;;;;4.50;2.90;;;;;;;2.96;42.34;100049.78;5294149;27;34260;-89
2021/12/23 12:12:58;;;;;;;2.70;2.50;;;;;;;3.28;41.95;100047.91;5291851;27;32058;-89
2021/12/23 12:15:47;;;;;;;3.62;2.30;;;;;;;3.34;41.47;100042.94;5298820;27;33912;-89
2021/12/23 12:18:18;;;;;;;2.58;2.28;;;;;;;3.38;40.78;100039.63;5297221;27;33521;-88
2021/12/23 12:20:50;;;;;;;2.33;2.12;;;;;;;3.18;40.69;100031.47;5291994;27;33833;-90
2021/12/23 12:23:22;;;;;;;3.70;2.50;;;;;;;2.91;41.30;100024.03;5291921;27;33135;-89
2021/12/23 12:26:01;;;;;;;4.90;2.17;;;;;;;3.15;41.64;100023.72;5292098;27;33334;-88
2021/12/23 12:28:36;;;;;;;5.30;2.85;;;;;;;3.14;41.42;100021.13;5274301;27;31576;-90
2021/12/23 12:31:07;;;;;;;3.83;2.92;;;;;;;3.16;41.64;100015.19;5292756;27;34681;-88
2021/12/23 12:33:49;;;;;;;5.75;3.33;;;;;;;3.31;42.45;100014.69;5298008;27;33945;-88
2021/12/23 12:36:22;;;;;;;3.55;2.37;;;;;;;3.49;42.18;100003.91;5276506;27;34535;-88
2021/12/23 12:38:54;;;;;;;3.33;2.33;;;;;;;3.26;41.59;100007.69;5292838;27;35653;-89